Marshall Ford, Texas
Current Conditions -  °F | °C
As of 4:51 PM on Thursday 27 Nov 2014 (Local Time) from KATT Reporting Station
Clear Clear  
Wind Chill: 61°   Ceiling: Unl
Heat Index: 61°   Visibility: 10mi
Dew Point: 33°   Wind: 3mph
Humidity: 35%   Direction: NA
Pressure: 30.42"   Gusts: NA
Location:  30.3745°N, 97.8933°W
Report Text: KATT 272251Z AUTO VRB03KT 10SM CLR 16/01 A3042 RMK AO2 SLP300 T01610006
Loading
Personal Weather Stations






























Interactive Weather Map New forecast layout! Learn more

10-Day Weather Forecast

Advertisements
Track Severe Weather on mobile